createdAt,value
2022-11-24T00:04:18.888Z,100
2022-11-24T00:18:48.601Z,100
2022-11-24T00:33:18.694Z,100
2022-11-24T00:47:45.569Z,100
2022-11-24T01:02:15.395Z,100
2022-11-24T01:16:45.541Z,100
2022-11-24T01:31:15.142Z,100
2022-11-24T01:45:45.823Z,100
2022-11-24T02:00:16.351Z,100
2022-11-24T02:14:46.357Z,100
2022-11-24T02:29:15.747Z,100
2022-11-24T02:43:46.627Z,100
2022-11-24T02:58:17.759Z,100
2022-11-24T03:12:48.277Z,100
2022-11-24T03:27:17.723Z,100
2022-11-24T03:41:46.923Z,100
2022-11-24T03:56:15.902Z,100
2022-11-24T04:10:45.476Z,100
2022-11-24T04:25:15.751Z,100
2022-11-24T04:39:45.624Z,100
2022-11-24T04:54:16.078Z,100
2022-11-24T05:08:45.190Z,100
2022-11-24T05:23:15.987Z,100
2022-11-24T05:37:46.380Z,100
2022-11-24T05:52:16.132Z,100
2022-11-24T06:06:46.120Z,100
2022-11-24T06:21:15.427Z,100
2022-11-24T06:35:43.294Z,100
2022-11-24T06:50:13.456Z,100
2022-11-24T07:04:43.430Z,100
2022-11-24T07:19:12.583Z,100
2022-11-24T07:33:42.697Z,100
2022-11-24T07:48:12.486Z,100
2022-11-24T08:02:43.591Z,100
2022-11-24T08:17:13.724Z,100
2022-11-24T08:31:43.279Z,100
2022-11-24T08:46:13.285Z,100
2022-11-24T09:00:43.308Z,100
2022-11-24T09:15:13.422Z,100
2022-11-24T09:29:43.381Z,100
2022-11-24T09:44:14.119Z,100
2022-11-24T09:58:44.226Z,100
2022-11-24T10:13:14.960Z,100
2022-11-24T10:27:45.039Z,100
2022-11-24T10:42:17.491Z,100
2022-11-24T10:56:47.797Z,100
2022-11-24T11:11:18.799Z,100
2022-11-24T11:25:49.384Z,100
2022-11-24T11:40:18.771Z,100
2022-11-24T11:54:55.740Z,100
2022-11-24T12:09:22.873Z,100
2022-11-24T12:23:51.527Z,100
2022-11-24T12:38:19.137Z,100
2022-11-24T12:52:55.663Z,100
2022-11-24T13:07:21.632Z,100
2022-11-24T13:21:50.581Z,100
2022-11-24T13:36:19.619Z,100
2022-11-24T13:50:48.161Z,100
2022-11-24T14:05:18.711Z,100
2022-11-24T14:19:50.930Z,98.8
2022-11-24T14:34:21.279Z,97
2022-11-24T14:48:49.351Z,97.6
2022-11-24T15:03:18.936Z,98.5
2022-11-24T15:17:46.086Z,98
2022-11-24T15:32:15.189Z,96.3
2022-11-24T15:46:43.996Z,97.3
2022-11-24T16:01:12.740Z,100
2022-11-24T16:15:43.397Z,100
2022-11-24T16:30:12.157Z,99.3
2022-11-24T16:44:41.572Z,98.8
2022-11-24T16:59:11.882Z,95.8
2022-11-24T17:13:40.930Z,98.1
2022-11-24T17:28:09.456Z,99.2
2022-11-24T17:42:38.065Z,100
2022-11-24T17:57:07.436Z,100
2022-11-24T18:11:35.700Z,100
2022-11-24T18:26:04.875Z,100
2022-11-24T18:40:36.012Z,100
2022-11-24T18:55:05.925Z,100
2022-11-24T19:09:33.663Z,100
2022-11-24T19:24:05.988Z,100
2022-11-24T19:38:31.659Z,100
2022-11-24T19:53:00.948Z,100
2022-11-24T20:07:27.826Z,100
2022-11-24T20:21:58.612Z,100
2022-11-24T20:36:25.822Z,100
2022-11-24T20:50:55.053Z,100
2022-11-24T21:05:22.932Z,100
2022-11-24T21:20:01.079Z,100
2022-11-24T21:34:25.334Z,100
2022-11-24T21:48:55.454Z,100
2022-11-24T22:03:24.867Z,100
2022-11-24T22:17:53.397Z,100
2022-11-24T22:32:23.187Z,100
2022-11-24T22:46:53.970Z,100
2022-11-24T23:01:23.073Z,100
2022-11-24T23:15:54.090Z,100
2022-11-24T23:30:23.362Z,100
2022-11-24T23:44:52.916Z,100
2022-11-24T23:59:21.404Z,100
